Time;durP1;ratioP1;P1;durP2;ratioP2;P2;SDS_P1;SDS_P2;PMS_P1;PMS_P2;Temp;Humidity;BMP_temperature;BMP_pressure;BME280_temperature;BME280_humidity;BME280_pressure;Samples;Min_cycle;Max_cycle;Signal;HPM_P1;HPM_P2
2021/12/14 00:02:12;;;;;;;3.37;3.07;;;10.40;99.90;;;;;;4980334;28;20479;-69
2021/12/14 00:04:40;;;;;;;3.33;2.90;;;10.40;99.90;;;;;;4982861;28;20485;-71
2021/12/14 00:07:10;;;;;;;4.50;2.80;;;10.40;99.90;;;;;;4983518;28;20493;-70
2021/12/14 00:09:40;;;;;;;2.90;2.43;;;10.50;99.90;;;;;;4986273;28;20459;-71
2021/12/14 00:12:24;;;;;;;4.17;2.23;;;10.50;99.90;;;;;;4981480;28;23286;-71
2021/12/14 00:15:04;;;;;;;2.53;2.20;;;10.50;99.90;;;;;;4979058;28;20457;-71
2021/12/14 00:17:40;;;;;;;2.57;2.20;;;10.20;99.90;;;;;;4988412;28;20484;-69
2021/12/14 00:20:14;;;;;;;3.47;2.57;;;10.30;99.90;;;;;;4980548;28;20489;-71
2021/12/14 00:25:29;;;;;;;2.50;2.30;;;10.30;99.90;;;;;;4981482;28;20453;-69
2021/12/14 00:27:58;;;;;;;3.47;2.17;;;10.30;99.90;;;;;;4982850;28;20469;-69
2021/12/14 00:30:25;;;;;;;3.13;2.43;;;10.20;99.90;;;;;;4987381;28;20533;-70
2021/12/14 00:32:52;;;;;;;4.00;2.00;;;10.20;99.90;;;;;;4979887;28;20467;-71
2021/12/14 00:35:21;;;;;;;4.10;2.07;;;10.20;99.90;;;;;;4970509;28;20462;-71
2021/12/14 00:37:50;;;;;;;2.47;2.20;;;10.20;99.90;;;;;;4986319;28;20541;-69
2021/12/14 00:40:21;;;;;;;2.93;2.73;;;10.20;99.90;;;;;;4974178;28;20457;-71
2021/12/14 00:42:49;;;;;;;4.10;2.50;;;10.10;99.90;;;;;;4983438;28;20916;-71
2021/12/14 00:45:17;;;;;;;3.33;2.20;;;10.10;99.90;;;;;;4979436;28;20621;-70
2021/12/14 00:47:44;;;;;;;3.30;2.70;;;10.00;99.90;;;;;;4990768;28;20511;-71
2021/12/14 00:50:12;;;;;;;3.37;2.30;;;10.10;99.90;;;;;;4984337;28;20541;-70
2021/12/14 00:52:43;;;;;;;3.40;1.93;;;10.10;99.90;;;;;;4974221;28;20459;-71
2021/12/14 00:55:12;;;;;;;2.90;1.83;;;10.10;99.90;;;;;;4982769;28;21120;-70
2021/12/14 00:57:40;;;;;;;2.73;2.20;;;10.10;99.90;;;;;;4980039;28;20482;-72
2021/12/14 01:00:11;;;;;;;2.80;2.47;;;10.20;99.90;;;;;;4978227;28;20464;-71
2021/12/14 01:02:39;;;;;;;3.20;2.47;;;10.20;99.90;;;;;;4980212;28;20582;-70
2021/12/14 01:05:11;;;;;;;4.07;2.60;;;10.30;99.90;;;;;;4981794;28;20619;-70
2021/12/14 01:07:39;;;;;;;3.40;2.37;;;10.20;99.90;;;;;;4984381;28;20517;-70
2021/12/14 01:10:11;;;;;;;5.80;3.13;;;10.20;99.90;;;;;;4982646;28;20518;-69
2021/12/14 01:12:45;;;;;;;2.93;2.47;;;10.20;99.90;;;;;;4984263;28;20546;-69
2021/12/14 01:15:27;;;;;;;2.17;1.90;;;10.10;99.90;;;;;;4966982;28;20557;-70
2021/12/14 01:18:14;;;;;;;3.37;1.93;;;10.20;99.90;;;;;;4982270;28;20517;-70
2021/12/14 01:20:45;;;;;;;3.50;2.20;;;10.30;99.90;;;;;;4985114;28;20479;-71
2021/12/14 01:23:19;;;;;;;3.53;2.70;;;10.10;99.90;;;;;;4996004;28;20550;-70
2021/12/14 01:25:51;;;;;;;2.77;1.83;;;10.00;99.90;;;;;;4993560;28;20584;-70
2021/12/14 01:28:22;;;;;;;2.60;2.40;;;10.00;99.90;;;;;;4971856;28;20461;-71
2021/12/14 01:31:01;;;;;;;2.83;2.50;;;10.10;99.90;;;;;;4979611;28;20436;-70
2021/12/14 01:33:29;;;;;;;2.73;1.87;;;10.10;99.90;;;;;;4979178;28;20500;-71
2021/12/14 01:35:57;;;;;;;4.27;2.27;;;10.10;99.90;;;;;;4979600;28;20569;-70
2021/12/14 01:38:36;;;;;;;2.17;1.70;;;10.10;99.90;;;;;;4975741;28;20598;-70
2021/12/14 01:41:08;;;;;;;2.53;2.07;;;10.10;99.90;;;;;;4978943;28;20433;-71
2021/12/14 01:43:41;;;;;;;4.50;2.73;;;10.10;99.90;;;;;;4982313;28;20489;-72
2021/12/14 01:46:12;;;;;;;3.40;2.47;;;10.20;99.90;;;;;;4978642;28;20648;-70
2021/12/14 01:48:40;;;;;;;3.10;1.83;;;10.20;99.90;;;;;;4986750;28;20428;-70
2021/12/14 01:51:10;;;;;;;2.07;1.53;;;10.20;99.90;;;;;;4971106;28;20513;-70
2021/12/14 01:53:41;;;;;;;4.00;2.43;;;10.20;99.90;;;;;;4982536;28;20531;-71
2021/12/14 01:56:12;;;;;;;5.90;2.30;;;10.20;99.90;;;;;;4977335;28;20494;-69
2021/12/14 01:58:45;;;;;;;3.27;2.43;;;10.20;99.90;;;;;;4977432;28;20528;-70
2021/12/14 02:01:18;;;;;;;5.40;3.00;;;10.20;99.90;;;;;;4983055;28;20473;-70
2021/12/14 02:03:48;;;;;;;4.33;3.00;;;10.20;99.90;;;;;;4981545;28;20486;-71
2021/12/14 02:06:19;;;;;;;2.57;2.27;;;10.20;99.90;;;;;;4979239;28;20469;-70
2021/12/14 02:08:55;;;;;;;2.53;2.33;;;10.20;99.90;;;;;;4982940;28;20524;-70
2021/12/14 02:11:22;;;;;;;3.50;2.57;;;10.10;99.90;;;;;;4975105;28;20489;-70
2021/12/14 02:13:53;;;;;;;5.00;4.57;;;10.00;99.90;;;;;;4979973;28;20570;-70
2021/12/14 02:16:22;;;;;;;2.10;1.90;;;10.00;99.90;;;;;;4981649;28;20465;-70
2021/12/14 02:18:53;;;;;;;5.20;2.10;;;10.00;99.90;;;;;;4980764;28;20559;-69
2021/12/14 02:21:22;;;;;;;6.93;2.07;;;9.90;99.90;;;;;;4980210;28;20579;-70
2021/12/14 02:23:51;;;;;;;4.10;1.60;;;9.80;99.90;;;;;;4985525;28;20956;-69
2021/12/14 02:26:22;;;;;;;3.27;2.37;;;9.80;99.90;;;;;;4962209;28;21099;-70
2021/12/14 02:28:49;;;;;;;3.40;2.10;;;9.70;99.90;;;;;;4981656;28;20502;-68
2021/12/14 02:31:21;;;;;;;3.33;2.03;;;9.80;99.90;;;;;;4983356;28;20846;-71
2021/12/14 02:33:51;;;;;;;3.90;1.77;;;9.80;99.90;;;;;;4979719;28;20570;-72
2021/12/14 02:36:23;;;;;;;3.23;2.93;;;9.90;99.90;;;;;;4983243;28;20493;-71
2021/12/14 02:39:03;;;;;;;3.53;2.23;;;9.90;99.90;;;;;;4985373;28;20481;-69
2021/12/14 02:41:31;;;;;;;2.97;2.23;;;9.90;99.90;;;;;;4979307;28;20443;-69
2021/12/14 02:43:59;;;;;;;4.43;2.93;;;10.00;99.90;;;;;;4977943;28;20566;-69
2021/12/14 02:46:31;;;;;;;2.07;1.77;;;10.00;99.90;;;;;;4977758;28;20528;-71
2021/12/14 02:49:03;;;;;;;3.63;2.63;;;10.00;99.90;;;;;;4979781;28;20914;-72
2021/12/14 02:51:35;;;;;;;2.80;2.17;;;9.90;99.90;;;;;;4984114;28;20633;-70
2021/12/14 02:54:06;;;;;;;2.80;2.03;;;9.80;99.90;;;;;;4985876;28;20911;-69
2021/12/14 02:56:36;;;;;;;4.47;2.80;;;9.80;99.90;;;;;;4987600;28;20667;-72
2021/12/14 02:59:05;;;;;;;4.97;2.00;;;9.70;99.90;;;;;;4988185;28;20500;-71
2021/12/14 03:01:34;;;;;;;5.10;2.60;;;9.70;99.90;;;;;;4986331;28;20441;-70
2021/12/14 03:04:03;;;;;;;2.40;2.20;;;9.60;99.90;;;;;;4977699;28;20564;-71
2021/12/14 03:06:44;;;;;;;4.00;2.20;;;9.60;99.90;;;;;;4983318;28;20503;-70
2021/12/14 03:09:31;;;;;;;4.27;1.87;;;9.60;99.90;;;;;;4986351;28;20458;-71
2021/12/14 03:11:58;;;;;;;3.50;2.97;;;9.60;99.90;;;;;;4983761;28;20437;-71
2021/12/14 03:14:25;;;;;;;4.20;2.40;;;9.60;99.90;;;;;;4977129;28;20493;-72
2021/12/14 03:16:53;;;;;;;3.80;2.73;;;9.50;99.90;;;;;;4985720;28;20504;-71
2021/12/14 03:19:20;;;;;;;13.13;3.20;;;9.60;99.90;;;;;;4981131;28;20498;-70
2021/12/14 03:21:49;;;;;;;4.70;2.70;;;9.60;99.90;;;;;;4983449;28;20528;-69
2021/12/14 03:24:18;;;;;;;3.30;2.33;;;9.60;99.90;;;;;;4977485;28;20844;-69
2021/12/14 03:26:49;;;;;;;5.70;3.10;;;9.50;99.90;;;;;;4978698;28;20557;-70
2021/12/14 03:29:19;;;;;;;2.60;2.40;;;9.50;99.90;;;;;;4980228;28;20564;-70
2021/12/14 03:31:50;;;;;;;4.07;3.43;;;9.50;99.90;;;;;;4988080;28;20470;-69
2021/12/14 03:34:20;;;;;;;4.10;2.43;;;9.50;99.90;;;;;;4978669;28;21808;-70
2021/12/14 03:36:50;;;;;;;5.60;2.93;;;9.50;99.90;;;;;;4968387;28;20555;-70
2021/12/14 03:39:20;;;;;;;4.53;4.10;;;9.50;99.90;;;;;;4983682;28;20514;-69
2021/12/14 03:41:49;;;;;;;2.97;1.80;;;9.60;99.90;;;;;;4981671;28;20470;-70
2021/12/14 03:44:19;;;;;;;3.97;3.30;;;9.60;99.90;;;;;;4982735;28;20548;-70
2021/12/14 03:46:51;;;;;;;2.83;2.53;;;9.50;99.90;;;;;;4986051;28;20540;-70
2021/12/14 03:49:20;;;;;;;5.20;3.20;;;9.50;99.90;;;;;;4979960;28;20793;-70
2021/12/14 03:51:49;;;;;;;3.40;2.43;;;9.50;99.90;;;;;;4979595;28;20526;-69
2021/12/14 03:54:18;;;;;;;6.27;4.30;;;9.60;99.90;;;;;;4981310;28;20549;-71
2021/12/14 03:56:45;;;;;;;6.20;3.50;;;9.50;99.90;;;;;;4984834;28;20553;-69
2021/12/14 03:59:13;;;;;;;4.07;3.20;;;9.40;99.90;;;;;;4977139;28;20513;-71
2021/12/14 04:01:44;;;;;;;6.50;3.60;;;9.50;99.90;;;;;;4978993;28;20511;-71
2021/12/14 04:04:16;;;;;;;4.73;3.47;;;9.50;99.90;;;;;;4981463;28;20542;-70
2021/12/14 04:06:45;;;;;;;5.17;3.57;;;9.50;99.90;;;;;;4981345;28;20459;-70
2021/12/14 04:09:15;;;;;;;8.47;3.80;;;9.50;99.90;;;;;;4985276;28;20958;-69
2021/12/14 04:11:43;;;;;;;7.30;4.03;;;9.50;99.90;;;;;;4974471;28;20567;-71
2021/12/14 04:14:11;;;;;;;6.90;3.70;;;9.60;99.90;;;;;;4985654;28;20548;-69
2021/12/14 04:16:41;;;;;;;4.70;3.63;;;9.60;99.90;;;;;;4980343;28;20545;-68
2021/12/14 04:19:10;;;;;;;3.53;2.40;;;9.50;99.90;;;;;;4972254;28;20492;-71
2021/12/14 04:21:41;;;;;;;4.50;2.90;;;9.70;99.90;;;;;;4979068;28;20458;-69
2021/12/14 04:24:10;;;;;;;5.77;3.63;;;9.60;99.90;;;;;;4986526;28;20646;-70
2021/12/14 04:26:43;;;;;;;3.90;2.90;;;9.60;99.90;;;;;;4977921;28;20520;-70
2021/12/14 04:29:12;;;;;;;6.63;4.10;;;9.60;99.90;;;;;;4970420;28;20813;-71
2021/12/14 04:31:40;;;;;;;4.20;2.97;;;9.60;99.90;;;;;;4979221;28;20443;-70
2021/12/14 04:34:07;;;;;;;5.17;3.80;;;9.50;99.90;;;;;;4974919;28;21163;-71
2021/12/14 04:36:34;;;;;;;5.80;4.70;;;9.40;99.90;;;;;;4978583;28;20475;-70
2021/12/14 04:39:29;;;;;;;2.80;2.60;;;9.40;99.90;;;;;;4977364;28;20510;-70
2021/12/14 04:53:17;;;;;;;6.23;3.83;;;9.50;99.90;;;;;;4978365;28;20480;-69
2021/12/14 04:55:46;;;;;;;5.37;3.70;;;9.50;99.90;;;;;;4975509;28;20564;-70
2021/12/14 04:58:15;;;;;;;11.13;5.00;;;9.50;99.90;;;;;;4983971;28;21627;-69
2021/12/14 05:00:45;;;;;;;7.97;4.80;;;9.50;99.90;;;;;;4982362;28;20597;-71
2021/12/14 05:03:19;;;;;;;9.00;5.13;;;9.30;99.90;;;;;;4978986;28;20841;-71
2021/12/14 05:05:49;;;;;;;14.30;7.43;;;9.30;99.90;;;;;;4980773;28;20709;-68
2021/12/14 05:11:07;;;;;;;12.80;7.30;;;9.30;99.90;;;;;;4981921;28;20527;-72
2021/12/14 05:13:39;;;;;;;9.63;5.00;;;9.30;99.90;;;;;;4983959;28;20516;-68
2021/12/14 05:16:07;;;;;;;16.87;6.87;;;9.30;99.90;;;;;;4980183;28;20830;-69
2021/12/14 05:18:34;;;;;;;7.43;4.23;;;9.30;99.90;;;;;;4983068;28;20534;-68
2021/12/14 05:21:01;;;;;;;6.27;3.53;;;9.40;99.90;;;;;;4979938;28;20609;-71
2021/12/14 05:23:33;;;;;;;10.30;4.87;;;9.40;99.90;;;;;;4982193;28;21043;-69
2021/12/14 05:26:02;;;;;;;8.30;5.07;;;9.30;99.90;;;;;;4964131;28;20799;-69
2021/12/14 05:28:32;;;;;;;13.13;6.50;;;9.20;99.90;;;;;;4973620;28;20502;-70
2021/12/14 05:31:00;;;;;;;10.90;6.70;;;9.20;99.90;;;;;;4980735;28;20799;-72
2021/12/14 05:33:30;;;;;;;10.30;4.73;;;9.10;99.90;;;;;;4973435;28;20486;-70
2021/12/14 05:36:00;;;;;;;15.70;6.13;;;9.00;99.90;;;;;;4967827;28;20444;-68
2021/12/14 05:38:42;;;;;;;12.60;6.70;;;9.10;99.90;;;;;;4974948;28;20493;-70
2021/12/14 05:43:05;;;;;;;12.20;6.27;;;9.20;99.90;;;;;;4976453;28;20441;-70
2021/12/14 05:43:56;;;;;;;10.33;7.80;;;9.20;99.90;;;;;;4966370;28;20470;-70
2021/12/14 05:46:25;;;;;;;15.13;9.30;;;9.20;99.90;;;;;;4967643;28;20573;-69
2021/12/14 05:48:59;;;;;;;19.83;8.43;;;9.10;99.90;;;;;;4970521;28;21067;-70
2021/12/14 05:51:28;;;;;;;11.17;7.63;;;9.10;99.90;;;;;;4987479;28;20469;-71
2021/12/14 05:53:55;;;;;;;13.17;7.17;;;9.10;99.90;;;;;;4983981;28;20480;-70
2021/12/14 05:56:25;;;;;;;17.37;7.47;;;9.10;99.90;;;;;;4977605;28;20474;-72
2021/12/14 05:58:54;;;;;;;9.27;5.23;;;9.10;99.90;;;;;;4979497;28;20488;-69
2021/12/14 06:01:25;;;;;;;13.93;5.90;;;9.10;99.90;;;;;;4978019;28;20490;-69
2021/12/14 06:03:55;;;;;;;14.70;7.00;;;9.20;99.90;;;;;;4978394;28;20461;-71
2021/12/14 06:06:25;;;;;;;14.53;8.10;;;9.20;99.90;;;;;;4966999;28;20494;-70
2021/12/14 06:09:01;;;;;;;13.30;7.47;;;9.30;99.90;;;;;;4982475;28;20463;-70
2021/12/14 06:11:29;;;;;;;9.93;6.40;;;9.20;99.90;;;;;;4986074;28;20470;-70
2021/12/14 06:13:57;;;;;;;10.33;5.80;;;9.20;99.90;;;;;;4991176;28;20487;-72
2021/12/14 06:16:28;;;;;;;8.03;4.50;;;9.20;99.90;;;;;;4982088;28;20473;-70
2021/12/14 06:19:11;;;;;;;15.93;6.60;;;9.20;99.90;;;;;;4984440;28;20472;-69
2021/12/14 06:21:39;;;;;;;15.90;7.43;;;9.20;99.90;;;;;;4989537;28;20556;-70
2021/12/14 06:24:08;;;;;;;18.07;6.83;;;9.20;99.90;;;;;;4988424;28;20461;-70
2021/12/14 06:26:37;;;;;;;21.77;8.33;;;9.20;99.90;;;;;;4992440;28;20462;-70
2021/12/14 06:29:09;;;;;;;21.83;9.73;;;9.20;99.90;;;;;;4991187;28;20556;-69
2021/12/14 06:31:39;;;;;;;18.43;8.43;;;9.20;99.90;;;;;;4989452;28;20439;-69
2021/12/14 06:34:29;;;;;;;12.70;5.33;;;9.20;99.90;;;;;;4991676;28;20481;-70
2021/12/14 06:37:29;;;;;;;16.27;8.43;;;9.30;99.90;;;;;;4986250;28;20840;-69
2021/12/14 06:40:10;;;;;;;21.30;10.40;;;9.20;99.90;;;;;;4987925;28;20489;-70
2021/12/14 06:42:40;;;;;;;23.83;9.20;;;9.30;99.90;;;;;;4990680;28;20493;-72
2021/12/14 06:45:10;;;;;;;18.57;7.80;;;9.20;99.90;;;;;;4990300;28;20536;-70
2021/12/14 06:47:40;;;;;;;11.47;6.03;;;9.10;99.90;;;;;;4986914;28;20503;-70
2021/12/14 06:50:10;;;;;;;17.10;8.20;;;9.10;99.90;;;;;;4990420;28;20847;-70
2021/12/14 06:52:38;;;;;;;16.80;8.30;;;9.20;99.90;;;;;;4996168;28;20447;-69
2021/12/14 06:55:06;;;;;;;15.40;8.50;;;9.20;99.90;;;;;;4991990;28;20508;-70
2021/12/14 06:57:34;;;;;;;14.63;7.03;;;9.30;99.90;;;;;;4993130;28;20445;-71
2021/12/14 07:00:01;;;;;;;15.57;9.00;;;9.20;99.90;;;;;;4989137;28;20516;-68
2021/12/14 07:02:28;;;;;;;16.67;9.10;;;9.30;99.90;;;;;;4985662;28;20454;-69
2021/12/14 07:04:57;;;;;;;16.90;8.57;;;9.40;99.90;;;;;;4987080;28;20889;-71
2021/12/14 07:07:26;;;;;;;16.57;7.20;;;9.50;99.90;;;;;;4987416;28;20465;-69
2021/12/14 07:09:55;;;;;;;13.00;6.73;;;9.50;99.90;;;;;;4989494;28;20951;-70
2021/12/14 07:12:26;;;;;;;14.53;10.10;;;9.50;99.90;;;;;;4989562;28;20548;-70
2021/12/14 07:15:09;;;;;;;9.60;5.87;;;9.40;99.90;;;;;;4990604;28;20530;-70
2021/12/14 07:17:42;;;;;;;21.37;11.20;;;9.30;99.90;;;;;;4998515;28;20480;-72
2021/12/14 07:20:22;;;;;;;14.07;6.90;;;9.30;99.90;;;;;;4995900;28;20600;-71
2021/12/14 07:22:51;;;;;;;12.97;7.40;;;9.40;99.90;;;;;;4991617;28;20982;-70
2021/12/14 07:25:23;;;;;;;19.93;9.53;;;9.30;99.90;;;;;;4992308;28;20572;-72
2021/12/14 07:27:51;;;;;;;11.90;6.93;;;9.30;99.90;;;;;;4991603;28;20477;-70
2021/12/14 07:30:22;;;;;;;11.97;7.40;;;9.10;99.90;;;;;;4991980;28;20436;-72
2021/12/14 07:32:56;;;;;;;18.27;9.43;;;9.20;99.90;;;;;;4982607;28;20439;-70
2021/12/14 07:35:41;;;;;;;12.50;6.77;;;9.30;99.90;;;;;;4991035;28;20539;-71
2021/12/14 07:38:40;;;;;;;14.57;8.57;;;9.30;99.90;;;;;;4987916;28;20501;-71
2021/12/14 07:41:26;;;;;;;23.27;7.07;;;9.40;99.90;;;;;;4981790;28;20978;-70
2021/12/14 07:43:57;;;;;;;19.93;11.03;;;9.30;99.90;;;;;;4966786;28;21011;-69
2021/12/14 07:46:30;;;;;;;15.47;7.60;;;9.30;99.90;;;;;;4984606;28;20517;-68
2021/12/14 07:49:06;;;;;;;15.83;7.00;;;9.30;99.90;;;;;;4984047;28;20882;-71
2021/12/14 07:51:38;;;;;;;19.70;8.53;;;9.40;99.90;;;;;;4991487;28;20602;-68
2021/12/14 07:54:08;;;;;;;16.80;8.83;;;9.30;99.90;;;;;;4986093;28;20453;-68
2021/12/14 07:56:40;;;;;;;21.57;10.70;;;9.20;99.90;;;;;;4986062;28;20524;-70
2021/12/14 07:59:18;;;;;;;17.90;8.17;;;9.30;99.90;;;;;;4987359;28;20623;-70
2021/12/14 08:01:46;;;;;;;19.03;9.73;;;9.30;99.90;;;;;;4986001;28;20520;-70
2021/12/14 08:04:14;;;;;;;17.90;7.90;;;9.30;99.90;;;;;;4982151;28;20556;-70
2021/12/14 08:06:46;;;;;;;19.60;9.50;;;9.20;99.90;;;;;;4965763;28;20469;-72
2021/12/14 08:09:33;;;;;;;17.17;8.10;;;9.20;99.90;;;;;;4979916;28;21065;-71
2021/12/14 08:12:01;;;;;;;15.40;7.83;;;9.10;99.90;;;;;;4979807;28;21203;-69
2021/12/14 08:14:30;;;;;;;20.97;11.07;;;9.20;99.90;;;;;;4980813;28;20490;-69
2021/12/14 08:17:01;;;;;;;22.00;12.00;;;9.40;99.90;;;;;;4986588;28;20851;-72
2021/12/14 08:19:34;;;;;;;21.30;11.90;;;9.40;99.90;;;;;;4984799;28;20497;-70
2021/12/14 08:22:07;;;;;;;22.60;11.80;;;9.40;99.90;;;;;;4989421;28;20852;-70
2021/12/14 08:24:36;;;;;;;17.53;8.30;;;9.20;99.90;;;;;;4977672;28;20492;-69
2021/12/14 08:27:08;;;;;;;20.87;10.13;;;9.20;99.90;;;;;;4988031;28;20466;-69
2021/12/14 08:29:38;;;;;;;16.00;11.40;;;9.30;99.90;;;;;;4991705;28;20555;-69
2021/12/14 08:32:09;;;;;;;30.57;10.13;;;9.40;99.90;;;;;;4975640;28;20917;-71
2021/12/14 08:34:40;;;;;;;21.87;11.30;;;9.40;99.90;;;;;;4981286;28;20577;-72
2021/12/14 08:37:11;;;;;;;25.93;11.70;;;9.50;99.90;;;;;;4977378;28;20448;-72
2021/12/14 08:39:45;;;;;;;22.57;10.70;;;9.50;99.90;;;;;;4987786;28;20890;-68
2021/12/14 08:42:17;;;;;;;22.37;8.50;;;9.60;99.90;;;;;;4979776;28;21458;-69
2021/12/14 08:44:52;;;;;;;22.20;10.30;;;9.60;99.90;;;;;;4983355;28;20485;-69
2021/12/14 08:47:29;;;;;;;21.07;10.50;;;9.50;99.90;;;;;;4985561;28;20475;-67
2021/12/14 08:49:58;;;;;;;13.13;9.40;;;9.40;99.90;;;;;;4987322;28;20458;-70
2021/12/14 08:52:26;;;;;;;17.20;9.10;;;9.50;99.90;;;;;;4988888;28;20462;-72
2021/12/14 08:54:54;;;;;;;20.23;8.90;;;9.60;99.90;;;;;;4985968;28;20493;-70
2021/12/14 08:57:24;;;;;;;22.33;13.10;;;9.60;99.90;;;;;;4991584;28;20545;-69
2021/12/14 08:59:54;;;;;;;17.50;9.03;;;9.50;99.90;;;;;;4990602;28;20976;-69
2021/12/14 09:02:23;;;;;;;17.57;7.57;;;9.50;99.90;;;;;;4988331;28;20565;-72
2021/12/14 09:04:55;;;;;;;14.23;8.30;;;9.50;99.90;;;;;;4984276;28;20559;-69
2021/12/14 09:07:25;;;;;;;16.57;9.60;;;9.40;99.90;;;;;;4988701;28;20464;-70
2021/12/14 09:09:55;;;;;;;14.50;10.17;;;9.40;99.90;;;;;;4988225;28;20522;-68
2021/12/14 09:12:26;;;;;;;20.27;9.40;;;9.30;99.90;;;;;;4986443;28;20536;-70
2021/12/14 09:14:55;;;;;;;20.70;10.37;;;9.40;99.90;;;;;;4985962;28;20491;-70
2021/12/14 09:17:23;;;;;;;17.50;9.13;;;9.50;99.90;;;;;;4986521;28;20462;-69
2021/12/14 09:19:55;;;;;;;16.40;9.53;;;9.60;99.90;;;;;;4994802;28;20447;-69
2021/12/14 09:22:25;;;;;;;18.13;10.17;;;9.50;99.90;;;;;;4979350;28;20535;-69
2021/12/14 09:24:54;;;;;;;22.50;11.67;;;9.50;99.90;;;;;;4979778;28;20481;-69
2021/12/14 09:27:25;;;;;;;20.73;11.67;;;9.60;99.90;;;;;;4990536;28;20436;-70
2021/12/14 09:29:53;;;;;;;19.80;10.80;;;9.70;99.90;;;;;;4984534;28;20448;-68
2021/12/14 09:32:26;;;;;;;20.80;8.43;;;9.80;99.90;;;;;;4988189;28;20547;-71
2021/12/14 09:34:54;;;;;;;25.57;10.93;;;9.80;99.90;;;;;;4987223;28;20460;-71
2021/12/14 09:37:21;;;;;;;22.37;10.07;;;9.80;99.90;;;;;;4989960;28;20551;-70
2021/12/14 09:39:50;;;;;;;21.80;9.57;;;9.60;99.90;;;;;;4988993;28;21047;-70
2021/12/14 09:42:21;;;;;;;19.13;8.50;;;9.60;99.90;;;;;;4991144;28;20473;-68
2021/12/14 09:44:51;;;;;;;17.50;7.27;;;9.50;99.90;;;;;;4984175;28;20607;-69
2021/12/14 09:47:29;;;;;;;14.47;9.67;;;9.60;99.90;;;;;;4992184;28;20457;-70
2021/12/14 09:49:58;;;;;;;14.70;7.87;;;9.70;99.90;;;;;;4986854;28;20466;-70
2021/12/14 09:52:28;;;;;;;18.70;8.93;;;9.70;99.90;;;;;;4998827;28;20461;-70
2021/12/14 09:54:56;;;;;;;16.00;6.80;;;9.60;99.90;;;;;;4997023;28;20942;-69
2021/12/14 09:57:27;;;;;;;38.93;13.00;;;9.70;99.90;;;;;;4978211;28;20973;-71
2021/12/14 09:59:57;;;;;;;27.53;13.50;;;9.70;99.90;;;;;;4988399;28;20499;-69
2021/12/14 10:02:30;;;;;;;17.73;9.40;;;9.80;99.90;;;;;;4993489;28;20543;-71
2021/12/14 10:05:00;;;;;;;13.53;7.80;;;9.80;99.90;;;;;;4991742;28;21002;-68
2021/12/14 10:07:27;;;;;;;11.83;6.00;;;9.90;99.90;;;;;;4991966;28;20462;-69
2021/12/14 10:09:58;;;;;;;14.43;8.07;;;9.90;99.90;;;;;;4991668;28;20998;-67
2021/12/14 10:15:34;;;;;;;16.00;7.67;;;9.80;99.90;;;;;;4980447;28;20502;-71
2021/12/14 10:18:04;;;;;;;14.40;8.40;;;9.80;99.90;;;;;;4987518;28;20457;-71
2021/12/14 10:20:41;;;;;;;15.27;8.70;;;9.80;99.90;;;;;;4992190;28;20478;-69
2021/12/14 10:23:09;;;;;;;17.80;10.10;;;9.80;99.90;;;;;;4993192;28;20488;-69
2021/12/14 10:25:36;;;;;;;17.43;8.10;;;9.70;99.90;;;;;;4993265;28;20538;-69
2021/12/14 10:28:06;;;;;;;20.63;9.47;;;9.80;99.90;;;;;;4992304;28;20488;-70
2021/12/14 10:30:35;;;;;;;22.43;9.20;;;9.80;99.90;;;;;;4995932;28;20713;-72
2021/12/14 10:33:04;;;;;;;23.03;9.43;;;9.70;99.90;;;;;;4977730;28;20453;-69
2021/12/14 10:35:39;;;;;;;17.90;10.63;;;9.80;99.90;;;;;;4959625;28;21278;-73
2021/12/14 10:38:18;;;;;;;17.53;8.80;;;9.70;99.90;;;;;;4984994;28;20473;-70
2021/12/14 10:43:35;;;;;;;14.30;9.20;;;9.80;99.90;;;;;;4978325;28;20476;-73
2021/12/14 10:46:08;;;;;;;14.17;7.80;;;9.90;99.90;;;;;;4976393;28;20555;-69
2021/12/14 10:48:38;;;;;;;9.70;6.20;;;10.10;99.90;;;;;;4984848;28;20461;-70
2021/12/14 10:51:08;;;;;;;13.43;8.77;;;10.10;99.90;;;;;;4977929;28;21309;-68
2021/12/14 10:53:41;;;;;;;19.07;9.70;;;10.00;99.90;;;;;;4980062;28;20552;-71
2021/12/14 10:56:13;;;;;;;27.70;9.37;;;10.00;99.90;;;;;;4981278;28;20443;-72
2021/12/14 10:58:43;;;;;;;25.57;11.47;;;10.20;99.90;;;;;;4972632;28;20905;-69
2021/12/14 11:01:13;;;;;;;28.03;12.40;;;10.30;99.90;;;;;;4988587;28;21169;-70
2021/12/14 11:03:47;;;;;;;17.23;8.50;;;10.30;99.90;;;;;;4978795;28;20579;-71
2021/12/14 11:06:21;;;;;;;22.77;8.70;;;10.40;99.90;;;;;;4983167;28;20504;-70
2021/12/14 11:08:59;;;;;;;16.50;9.77;;;10.40;99.90;;;;;;4987922;28;20497;-68
2021/12/14 11:11:33;;;;;;;18.23;9.67;;;10.40;99.90;;;;;;4983531;28;20553;-71
2021/12/14 11:14:06;;;;;;;20.93;9.27;;;10.20;99.90;;;;;;4988784;28;20566;-71
2021/12/14 11:19:18;;;;;;;26.63;11.60;;;10.20;99.90;;;;;;4992328;28;20452;-72
2021/12/14 11:21:46;;;;;;;18.23;8.97;;;10.30;99.90;;;;;;4988670;28;20956;-70
2021/12/14 11:24:13;;;;;;;20.30;10.30;;;10.40;99.90;;;;;;4979290;28;22204;-73
2021/12/14 11:26:40;;;;;;;20.60;10.60;;;10.50;99.90;;;;;;4982618;28;20493;-69
2021/12/14 11:29:13;;;;;;;24.03;12.50;;;10.30;99.90;;;;;;4988160;28;20511;-70
2021/12/14 11:31:48;;;;;;;14.30;8.40;;;10.20;99.90;;;;;;4986131;28;20472;-69
2021/12/14 11:34:17;;;;;;;22.70;11.00;;;10.10;99.90;;;;;;4986441;28;20862;-71
2021/12/14 11:36:47;;;;;;;19.43;9.60;;;10.10;99.90;;;;;;4982378;28;20797;-69
2021/12/14 11:39:23;;;;;;;21.13;11.93;;;10.30;99.90;;;;;;4986976;28;20463;-69
2021/12/14 11:41:53;;;;;;;13.50;7.87;;;10.30;99.90;;;;;;4992711;28;20612;-69
2021/12/14 11:44:25;;;;;;;19.60;10.97;;;10.40;99.90;;;;;;4986470;28;21002;-69
2021/12/14 11:47:00;;;;;;;25.83;13.30;;;10.40;99.90;;;;;;4987211;28;21070;-68
2021/12/14 11:49:42;;;;;;;24.83;10.43;;;10.50;99.90;;;;;;4986786;28;20436;-71
2021/12/14 11:52:10;;;;;;;26.67;12.90;;;10.50;99.90;;;;;;4988772;28;20545;-69
2021/12/14 11:54:44;;;;;;;16.53;8.90;;;10.60;99.90;;;;;;4977490;28;20635;-71
2021/12/14 11:57:11;;;;;;;21.27;12.60;;;10.40;99.90;;;;;;4976987;28;20553;-69
2021/12/14 11:59:40;;;;;;;26.17;12.47;;;10.60;99.90;;;;;;4986411;28;21030;-70
2021/12/14 12:02:08;;;;;;;22.80;12.20;;;10.60;99.90;;;;;;4983345;28;20521;-69
2021/12/14 12:04:42;;;;;;;17.50;9.90;;;10.50;99.90;;;;;;4981598;28;20489;-72
2021/12/14 12:09:59;;;;;;;24.10;11.00;;;10.40;99.90;;;;;;4988218;28;20453;-70
2021/12/14 12:12:29;;;;;;;28.67;10.97;;;10.20;99.90;;;;;;4984783;28;20469;-71
2021/12/14 12:15:02;;;;;;;17.87;9.03;;;10.30;99.90;;;;;;4983893;28;20577;-69
2021/12/14 12:17:36;;;;;;;20.10;9.00;;;10.30;99.90;;;;;;4988757;28;20458;-73
2021/12/14 12:20:22;;;;;;;15.43;8.37;;;10.30;99.90;;;;;;4989770;28;20443;-72
2021/12/14 12:22:52;;;;;;;25.43;10.47;;;10.30;99.90;;;;;;5003345;28;20532;-71
2021/12/14 12:25:23;;;;;;;13.43;7.70;;;10.40;99.90;;;;;;4993885;28;20894;-68
2021/12/14 12:27:52;;;;;;;12.33;5.60;;;10.50;99.90;;;;;;4986676;28;20548;-73
2021/12/14 12:30:34;;;;;;;22.10;11.00;;;10.50;99.90;;;;;;4988256;28;20798;-69
2021/12/14 12:33:08;;;;;;;15.57;8.07;;;10.30;99.90;;;;;;4992572;28;20576;-69
2021/12/14 12:35:44;;;;;;;16.13;6.60;;;10.30;99.90;;;;;;4984778;28;20461;-69
2021/12/14 12:38:30;;;;;;;22.50;11.83;;;10.40;99.90;;;;;;4984408;28;20899;-73
2021/12/14 12:41:01;;;;;;;12.23;7.60;;;10.50;99.90;;;;;;4987156;28;20463;-73
2021/12/14 12:43:34;;;;;;;15.30;7.10;;;10.60;99.90;;;;;;4984872;28;21286;-71
2021/12/14 12:46:07;;;;;;;12.27;7.50;;;10.50;99.90;;;;;;4978938;28;20536;-72
2021/12/14 12:48:55;;;;;;;8.97;5.83;;;10.50;99.90;;;;;;4975147;28;20487;-73
2021/12/14 12:52:08;;;;;;;15.93;8.10;;;10.40;99.90;;;;;;4981239;28;20469;-69
2021/12/14 12:54:47;;;;;;;19.83;9.90;;;10.30;99.90;;;;;;4977116;28;21145;-72
2021/12/14 12:57:32;;;;;;;19.77;10.93;;;10.30;99.90;;;;;;4985672;28;20461;-69
2021/12/14 13:00:09;;;;;;;21.87;11.17;;;10.30;99.90;;;;;;4960178;28;20455;-70
2021/12/14 13:02:42;;;;;;;15.67;9.07;;;10.40;99.90;;;;;;4965529;28;20471;-70
2021/12/14 13:05:15;;;;;;;20.07;10.50;;;10.40;99.90;;;;;;4976564;28;20486;-72
2021/12/14 13:07:48;;;;;;;27.57;14.57;;;10.60;99.90;;;;;;4970529;28;20460;-70
2021/12/14 13:10:28;;;;;;;20.97;10.70;;;10.60;99.90;;;;;;4981724;28;20478;-68
2021/12/14 13:13:01;;;;;;;22.90;12.37;;;10.50;99.90;;;;;;4982710;28;20459;-69
2021/12/14 13:15:32;;;;;;;29.97;14.50;;;10.40;99.90;;;;;;4974751;28;20481;-72
2021/12/14 13:18:31;;;;;;;23.40;12.53;;;10.40;99.90;;;;;;4985057;28;20462;-69
2021/12/14 13:21:02;;;;;;;35.70;12.10;;;10.20;99.90;;;;;;4985318;28;20470;-70
2021/12/14 13:23:41;;;;;;;24.80;11.33;;;10.30;99.90;;;;;;4984018;28;20985;-69
2021/12/14 13:26:31;;;;;;;22.07;10.60;;;10.20;99.90;;;;;;4988087;28;20981;-69
2021/12/14 13:29:04;;;;;;;23.20;10.70;;;10.20;99.90;;;;;;4986469;28;20474;-70
2021/12/14 13:31:36;;;;;;;26.73;12.33;;;10.30;99.90;;;;;;4982390;28;20545;-70
2021/12/14 13:34:09;;;;;;;21.37;10.60;;;10.30;99.90;;;;;;4984653;28;20539;-68
2021/12/14 13:36:38;;;;;;;23.40;11.53;;;10.30;99.90;;;;;;4966380;28;20453;-70
2021/12/14 13:39:07;;;;;;;25.57;14.67;;;10.30;99.90;;;;;;4968807;28;20601;-69